createdAt,value
2018-05-27T00:02:25.483Z,101116.88
2018-05-27T00:04:53.803Z,101119.52
2018-05-27T00:07:22.911Z,101119.27
2018-05-27T00:09:52.059Z,101116.38
2018-05-27T00:12:20.397Z,101122.34
2018-05-27T00:14:48.783Z,101119.69
2018-05-27T00:17:17.155Z,101125.02
2018-05-27T00:19:45.531Z,101123.44
2018-05-27T00:22:13.862Z,101126.78
2018-05-27T00:24:42.245Z,101115.25
2018-05-27T00:27:10.615Z,101112.91
2018-05-27T00:29:38.953Z,101112.73
2018-05-27T00:32:07.335Z,101111.60
2018-05-27T00:34:35.714Z,101113.92
2018-05-27T00:37:04.048Z,101112.26
2018-05-27T00:39:32.440Z,101109.22
2018-05-27T00:42:01.155Z,101103.02
2018-05-27T00:44:29.671Z,101103.73
2018-05-27T00:46:58.047Z,101102.00
2018-05-27T00:49:26.370Z,101101.00
2018-05-27T00:51:54.759Z,101101.84
2018-05-27T00:54:23.080Z,101105.42
2018-05-27T00:56:52.226Z,101103.70
2018-05-27T00:59:20.588Z,101102.55
2018-05-27T01:01:49.728Z,101103.14
2018-05-27T01:04:18.095Z,101106.80
2018-05-27T01:06:46.482Z,101115.19
2018-05-27T01:09:15.654Z,101110.33
2018-05-27T01:11:43.987Z,101104.01
2018-05-27T01:14:12.303Z,101108.11
2018-05-27T01:16:40.681Z,101107.05
2018-05-27T01:19:08.982Z,101103.48
2018-05-27T01:21:37.383Z,101102.28
2018-05-27T01:24:06.540Z,101096.27
2018-05-27T01:26:35.688Z,101099.95
2018-05-27T01:29:04.087Z,101103.28
2018-05-27T01:31:32.431Z,101102.05
2018-05-27T01:34:00.756Z,101096.02
2018-05-27T01:36:29.498Z,101097.88
2018-05-27T01:38:57.853Z,101093.63
2018-05-27T01:41:26.192Z,101104.48
2018-05-27T01:43:55.284Z,101092.20
2018-05-27T01:46:23.750Z,101093.88
2018-05-27T01:48:52.127Z,101087.02
2018-05-27T01:51:21.263Z,101088.95
2018-05-27T01:53:49.653Z,101087.25
2018-05-27T01:56:18.031Z,101092.39
2018-05-27T01:58:46.407Z,101083.64
2018-05-27T02:01:14.803Z,101089.90
2018-05-27T02:03:43.916Z,101089.97
2018-05-27T02:06:12.267Z,101088.94
2018-05-27T02:08:40.603Z,101089.10
2018-05-27T02:11:08.951Z,101086.02
2018-05-27T02:13:37.503Z,101083.30
2018-05-27T02:16:05.967Z,101086.89
2018-05-27T02:18:35.045Z,101086.87
2018-05-27T02:21:03.414Z,101083.95
2018-05-27T02:23:31.783Z,101086.23
2018-05-27T02:26:00.136Z,101081.05
2018-05-27T02:28:28.468Z,101077.86
2018-05-27T02:30:56.799Z,101080.67
2018-05-27T02:33:25.359Z,101080.51
2018-05-27T02:35:53.733Z,101082.68
2018-05-27T02:38:22.830Z,101080.52
2018-05-27T02:40:51.970Z,101079.86
2018-05-27T02:43:20.324Z,101084.92
2018-05-27T02:45:48.675Z,101081.42
2018-05-27T02:48:16.999Z,101078.05
2018-05-27T02:50:45.368Z,101081.02
2018-05-27T02:53:13.679Z,101080.58
2018-05-27T02:55:42.064Z,101081.97
2018-05-27T02:58:10.423Z,101076.54
2018-05-27T03:00:38.784Z,101075.23
2018-05-27T03:03:07.089Z,101071.86
2018-05-27T03:05:35.812Z,101069.76
2018-05-27T03:08:04.197Z,101071.50
2018-05-27T03:10:32.590Z,101070.47
2018-05-27T03:13:00.985Z,101072.44
2018-05-27T03:15:29.351Z,101072.56
2018-05-27T03:17:57.707Z,101070.52
2018-05-27T03:20:26.035Z,101070.53
2018-05-27T03:22:54.430Z,101068.22
2018-05-27T03:25:22.815Z,101074.05
2018-05-27T03:27:51.231Z,101072.73
2018-05-27T03:30:19.579Z,101070.91
2018-05-27T03:32:48.091Z,101075.04
2018-05-27T03:35:16.432Z,101075.09
2018-05-27T03:37:44.821Z,101074.05
2018-05-27T03:40:13.183Z,101071.60
2018-05-27T03:42:41.559Z,101074.65
2018-05-27T03:45:09.944Z,101074.86
2018-05-27T03:47:38.323Z,101077.33
2018-05-27T03:50:06.664Z,101068.12
2018-05-27T03:52:35.025Z,101062.16
2018-05-27T03:55:03.411Z,101064.02
2018-05-27T03:57:31.773Z,101066.14
2018-05-27T04:00:00.971Z,101071.31
2018-05-27T04:02:29.295Z,101074.63
2018-05-27T04:05:16.047Z,101072.32
2018-05-27T04:08:02.057Z,101074.94
2018-05-27T04:10:30.380Z,101076.39
2018-05-27T04:12:58.765Z,101078.61
2018-05-27T04:15:27.808Z,101077.42
2018-05-27T04:17:56.278Z,101082.19
2018-05-27T04:20:24.664Z,101072.16
2018-05-27T04:22:52.987Z,101070.74
2018-05-27T04:25:21.323Z,101077.65
2018-05-27T04:27:49.671Z,101079.27
2018-05-27T04:30:17.998Z,101076.18
2018-05-27T04:32:46.335Z,101070.72
2018-05-27T04:35:14.711Z,101066.45
2018-05-27T04:37:43.093Z,101067.05
2018-05-27T04:40:11.462Z,101067.67
2018-05-27T04:42:39.791Z,101069.58
2018-05-27T04:45:09.095Z,101077.47
2018-05-27T04:47:37.494Z,101069.20
2018-05-27T04:50:05.831Z,101074.31
2018-05-27T04:52:34.230Z,101078.67
2018-05-27T04:55:02.535Z,101077.37
2018-05-27T04:57:30.907Z,101082.16
2018-05-27T04:59:59.229Z,101079.93
2018-05-27T05:02:27.639Z,101076.30
2018-05-27T05:04:55.973Z,101075.69
2018-05-27T05:07:24.713Z,101083.75
2018-05-27T05:09:53.203Z,101085.47
2018-05-27T05:12:21.556Z,101088.91
2018-05-27T05:14:49.904Z,101086.44
2018-05-27T05:17:22.574Z,101082.40
2018-05-27T05:19:51.015Z,101068.67
2018-05-27T05:22:20.675Z,101071.44
2018-05-27T05:24:49.056Z,101073.57
2018-05-27T05:27:17.402Z,101069.70
2018-05-27T05:29:45.967Z,101073.63
2018-05-27T05:32:14.315Z,101065.75
2018-05-27T05:34:43.818Z,101071.91
2018-05-27T05:37:12.303Z,101068.61
2018-05-27T05:39:40.674Z,101074.19
2018-05-27T05:42:09.011Z,101069.55
2018-05-27T05:44:37.358Z,101078.91
2018-05-27T05:47:05.719Z,101084.50
2018-05-27T05:49:34.100Z,101083.92
2018-05-27T05:52:02.438Z,101082.68
2018-05-27T05:54:30.779Z,101082.20
2018-05-27T05:56:59.085Z,101085.78
2018-05-27T05:59:27.487Z,101082.35
2018-05-27T06:01:55.863Z,101080.47
2018-05-27T06:04:24.595Z,101085.50
2018-05-27T06:06:52.968Z,101074.56
2018-05-27T06:09:21.298Z,101078.02
2018-05-27T06:11:49.635Z,101080.22
2018-05-27T06:14:17.978Z,101071.59
2018-05-27T06:16:46.331Z,101080.19
2018-05-27T06:19:14.705Z,101078.52
2018-05-27T06:21:43.155Z,101073.98
2018-05-27T06:24:11.542Z,101075.79
2018-05-27T06:26:39.903Z,101073.53
2018-05-27T06:29:08.237Z,101070.53
2018-05-27T06:31:36.620Z,101081.28
2018-05-27T06:34:04.993Z,101088.99
2018-05-27T06:36:33.391Z,101088.09
2018-05-27T06:39:01.758Z,101096.16
2018-05-27T06:41:30.171Z,101095.97
2018-05-27T06:43:58.571Z,101092.33
2018-05-27T06:46:26.967Z,101082.45
2018-05-27T06:48:55.367Z,101079.57
2018-05-27T06:51:23.755Z,101080.05
2018-05-27T06:53:52.156Z,101085.69
2018-05-27T06:56:20.518Z,101079.84
2018-05-27T06:58:48.865Z,101080.92
2018-05-27T07:01:17.244Z,101085.62
2018-05-27T07:03:46.359Z,101080.26
2018-05-27T07:06:14.771Z,101085.69
2018-05-27T07:08:43.158Z,101077.95
2018-05-27T07:11:11.552Z,101076.47
2018-05-27T07:13:39.932Z,101072.66
2018-05-27T07:16:08.296Z,101066.58
2018-05-27T07:18:36.638Z,101070.87
2018-05-27T07:21:05.032Z,101067.35
2018-05-27T07:23:33.416Z,101064.13
2018-05-27T07:26:01.753Z,101060.64
2018-05-27T07:28:30.116Z,101061.25
2018-05-27T07:30:58.487Z,101060.81
2018-05-27T07:33:26.850Z,101059.06
2018-05-27T07:35:55.194Z,101056.76
2018-05-27T07:38:23.607Z,101052.25
2018-05-27T07:40:51.947Z,101056.44
2018-05-27T07:43:20.338Z,101059.42
2018-05-27T07:45:59.488Z,101064.39
2018-05-27T07:48:27.875Z,101060.89
2018-05-27T07:50:56.260Z,101060.67
2018-05-27T07:53:24.687Z,101055.97
2018-05-27T07:55:53.050Z,101054.27
2018-05-27T07:58:21.411Z,101054.92
2018-05-27T08:00:49.768Z,101046.29
2018-05-27T08:03:18.131Z,101046.52
2018-05-27T08:05:46.524Z,101043.03
2018-05-27T08:08:14.852Z,101044.66
2018-05-27T08:10:43.239Z,101044.47
2018-05-27T08:13:11.558Z,101037.91
2018-05-27T08:15:39.859Z,101037.51
2018-05-27T08:18:08.243Z,101031.89
2018-05-27T08:20:37.375Z,101033.14
2018-05-27T08:23:05.846Z,101030.09
2018-05-27T08:25:34.939Z,101026.84
2018-05-27T08:28:03.344Z,101028.87
2018-05-27T08:30:31.665Z,101026.52
2018-05-27T08:33:00.032Z,101033.31
2018-05-27T08:35:28.378Z,101031.58
2018-05-27T08:37:56.778Z,101026.20
2018-05-27T08:40:25.135Z,101029.16
2018-05-27T08:42:53.497Z,101028.84
2018-05-27T08:45:21.810Z,101030.58
2018-05-27T08:47:50.115Z,101033.80
2018-05-27T08:50:19.263Z,101032.83
2018-05-27T08:52:47.579Z,101025.83
2018-05-27T08:55:15.958Z,101021.90
2018-05-27T08:57:44.290Z,101029.53
2018-05-27T09:00:12.610Z,101025.97
2018-05-27T09:02:40.928Z,101026.12
2018-05-27T09:05:09.225Z,101033.22
2018-05-27T09:07:37.555Z,101030.75
2018-05-27T09:10:05.863Z,101032.35
2018-05-27T09:12:34.196Z,101021.70
2018-05-27T09:15:02.493Z,101023.59
2018-05-27T09:17:30.827Z,101026.05
2018-05-27T09:19:59.131Z,101015.53
2018-05-27T09:22:27.422Z,101016.78
2018-05-27T09:24:55.811Z,101016.67
2018-05-27T09:27:24.110Z,101016.62
2018-05-27T09:29:52.451Z,101017.27
2018-05-27T09:32:20.780Z,101013.00
2018-05-27T09:34:49.115Z,101008.17
2018-05-27T09:37:17.431Z,101011.98
2018-05-27T09:39:46.572Z,101009.33
2018-05-27T09:42:14.890Z,101007.77
2018-05-27T09:44:43.234Z,101009.39
2018-05-27T09:47:11.578Z,101005.56
2018-05-27T09:49:39.900Z,101005.52
2018-05-27T09:52:08.251Z,100998.39
2018-05-27T09:54:36.582Z,100997.15
2018-05-27T09:57:04.970Z,100998.77
2018-05-27T09:59:33.344Z,101004.95
2018-05-27T10:02:01.684Z,101002.73
2018-05-27T10:04:29.980Z,101000.59
2018-05-27T10:06:58.291Z,101001.61
2018-05-27T10:09:26.634Z,100995.55
2018-05-27T10:11:54.958Z,100986.63
2018-05-27T10:14:23.327Z,100985.97
2018-05-27T10:16:51.655Z,100984.96
2018-05-27T10:19:20.015Z,100985.78
2018-05-27T10:21:48.319Z,100981.37
2018-05-27T10:24:16.650Z,100980.91
2018-05-27T10:26:44.945Z,100972.79
2018-05-27T10:29:13.272Z,100969.03
2018-05-27T10:31:41.594Z,100964.86
2018-05-27T10:34:09.898Z,100963.56
2018-05-27T10:36:38.214Z,100963.56
2018-05-27T10:39:06.531Z,100956.83
2018-05-27T10:41:34.862Z,100955.72
2018-05-27T10:44:03.218Z,100948.55
2018-05-27T10:46:31.560Z,100949.58
2018-05-27T10:48:59.894Z,100953.48
2018-05-27T10:51:28.254Z,100939.73
2018-05-27T10:53:56.599Z,100938.31
2018-05-27T10:56:24.935Z,100933.72
2018-05-27T10:58:53.263Z,100933.27
2018-05-27T11:01:21.581Z,100935.25
2018-05-27T11:03:49.914Z,100934.12
2018-05-27T11:06:18.285Z,100931.38
2018-05-27T11:08:46.634Z,100929.39
2018-05-27T11:11:14.943Z,100928.03
2018-05-27T11:13:43.316Z,100926.77
2018-05-27T11:16:11.677Z,100924.02
2018-05-27T11:18:40.060Z,100926.87
2018-05-27T11:21:08.410Z,100919.77
2018-05-27T11:23:36.732Z,100925.69
2018-05-27T11:26:05.882Z,100925.27
2018-05-27T11:28:34.215Z,100930.55
2018-05-27T11:31:02.552Z,100931.55
2018-05-27T11:33:30.898Z,100930.80
2018-05-27T11:35:59.244Z,100933.45
2018-05-27T11:38:27.559Z,100928.71
2018-05-27T11:40:55.862Z,100919.73
2018-05-27T11:43:24.191Z,100926.38
2018-05-27T11:45:52.560Z,100922.70
2018-05-27T11:48:20.925Z,100922.70
2018-05-27T11:50:49.319Z,100922.19
2018-05-27T11:53:17.886Z,100917.91
2018-05-27T11:55:46.261Z,100916.17
2018-05-27T11:58:14.655Z,100910.73
2018-05-27T12:00:42.969Z,100905.20
2018-05-27T12:03:11.326Z,100905.55
2018-05-27T12:05:39.699Z,100903.31
2018-05-27T12:08:08.003Z,100894.77
2018-05-27T12:10:36.344Z,100893.52
2018-05-27T12:13:04.728Z,100886.30
2018-05-27T12:15:33.044Z,100877.85
2018-05-27T12:18:01.359Z,100869.12
2018-05-27T12:20:29.782Z,100864.81
2018-05-27T12:22:58.103Z,100863.25
2018-05-27T12:25:26.429Z,100867.91
2018-05-27T12:27:54.759Z,100868.96
2018-05-27T12:30:23.061Z,100873.61
2018-05-27T12:32:51.397Z,100872.55
2018-05-27T12:35:19.708Z,100865.89
2018-05-27T12:37:48.813Z,100877.04
2018-05-27T12:40:17.195Z,100872.62
2018-05-27T12:42:45.775Z,100870.63
2018-05-27T12:45:14.143Z,100869.08
2018-05-27T12:47:42.474Z,100862.92
2018-05-27T12:50:12.763Z,100861.25
2018-05-27T12:52:41.075Z,100867.69
2018-05-27T12:55:09.428Z,100870.14
2018-05-27T12:57:38.503Z,100875.70
2018-05-27T13:00:06.851Z,100870.33
2018-05-27T13:02:35.168Z,100856.06
2018-05-27T13:05:03.474Z,100852.65
2018-05-27T13:07:31.786Z,100859.21
2018-05-27T13:10:00.864Z,100862.41
2018-05-27T13:12:29.330Z,100878.38
2018-05-27T13:14:57.668Z,100892.05
2018-05-27T13:17:26.002Z,100896.02
2018-05-27T13:19:54.365Z,100900.59
2018-05-27T13:22:22.689Z,100894.01
2018-05-27T13:24:51.006Z,100894.27
2018-05-27T13:27:19.359Z,100907.89
2018-05-27T13:29:47.685Z,100911.48
2018-05-27T13:32:16.034Z,100917.02
2018-05-27T13:34:44.375Z,100913.61
2018-05-27T13:37:12.694Z,100912.31
2018-05-27T13:39:41.089Z,100911.99
2018-05-27T13:42:09.403Z,100909.56
2018-05-27T13:44:37.736Z,100906.09
2018-05-27T13:47:06.072Z,100910.21
2018-05-27T13:49:34.434Z,100909.76
2018-05-27T13:52:02.737Z,100911.76
2018-05-27T13:54:31.058Z,100915.33
2018-05-27T13:56:59.376Z,100921.56
2018-05-27T13:59:27.687Z,100935.27
2018-05-27T14:01:56.023Z,100933.52
2018-05-27T14:04:24.656Z,100938.72
2018-05-27T14:06:53.189Z,100939.04
2018-05-27T14:09:21.499Z,100933.82
2018-05-27T14:11:49.855Z,100937.52
2018-05-27T14:14:18.176Z,100937.14
2018-05-27T14:16:47.267Z,100938.95
2018-05-27T14:19:16.364Z,100937.47
2018-05-27T14:21:44.692Z,100943.28
2018-05-27T14:24:13.099Z,100940.41
2018-05-27T14:26:41.553Z,100935.10
2018-05-27T14:29:10.070Z,100926.60
2018-05-27T14:31:38.402Z,100929.34
2018-05-27T14:34:06.791Z,100933.61
2018-05-27T14:36:35.120Z,100934.00
2018-05-27T14:39:04.212Z,100937.91
2018-05-27T14:41:32.533Z,100934.02
2018-05-27T14:44:00.870Z,100926.56
2018-05-27T14:46:29.273Z,100927.55
2018-05-27T14:48:57.590Z,100924.78
2018-05-27T14:51:26.715Z,100928.59
2018-05-27T14:53:55.022Z,100919.16
2018-05-27T14:56:23.342Z,100928.33
2018-05-27T14:58:51.670Z,100927.95
2018-05-27T15:01:20.000Z,100925.56
2018-05-27T15:03:48.355Z,100933.59
2018-05-27T15:06:16.843Z,100927.09
2018-05-27T15:08:45.144Z,100933.77
2018-05-27T15:11:14.239Z,100931.15
2018-05-27T15:13:42.617Z,100932.28
2018-05-27T15:16:10.963Z,100934.79
2018-05-27T15:18:39.350Z,100928.70
2018-05-27T15:21:08.420Z,100934.96
2018-05-27T15:23:36.755Z,100935.23
2018-05-27T15:26:05.065Z,100934.42
2018-05-27T15:28:33.395Z,100934.23
2018-05-27T15:31:01.712Z,100934.79
2018-05-27T15:33:30.017Z,100930.64
2018-05-27T15:35:58.338Z,100925.38
2018-05-27T15:38:27.698Z,100921.13
2018-05-27T15:40:56.805Z,100934.11
2018-05-27T15:43:25.877Z,100929.27
2018-05-27T15:45:54.195Z,100928.35
2018-05-27T15:48:22.548Z,100929.92
2018-05-27T15:50:50.846Z,100922.67
2018-05-27T15:53:19.930Z,100918.69
2018-05-27T15:55:48.391Z,100911.08
2018-05-27T15:58:16.718Z,100908.37
2018-05-27T16:00:45.033Z,100914.15
2018-05-27T16:03:13.364Z,100910.25
2018-05-27T16:05:42.424Z,100902.46
2018-05-27T16:08:10.874Z,100895.76
2018-05-27T16:10:39.244Z,100899.94
2018-05-27T16:13:07.583Z,100895.50
2018-05-27T16:15:35.915Z,100905.55
2018-05-27T16:18:04.234Z,100908.05
2018-05-27T16:20:33.312Z,100911.00
2018-05-27T16:23:01.659Z,100904.92
2018-05-27T16:25:29.960Z,100910.88
2018-05-27T16:27:58.287Z,100914.30
2018-05-27T16:30:26.614Z,100921.25
2018-05-27T16:32:54.946Z,100918.63
2018-05-27T16:35:23.281Z,100913.86
2018-05-27T16:37:52.358Z,100916.20
2018-05-27T16:40:20.693Z,100922.78
2018-05-27T16:42:49.030Z,100930.56
2018-05-27T16:45:17.366Z,100956.25
2018-05-27T16:47:46.089Z,100973.98
2018-05-27T16:50:14.416Z,100968.42
2018-05-27T16:52:44.727Z,100961.58
2018-05-27T16:55:13.055Z,100951.47
2018-05-27T16:57:41.407Z,100939.69
2018-05-27T17:00:09.734Z,100929.08
2018-05-27T17:02:38.059Z,100927.47
2018-05-27T17:05:06.374Z,100920.87
2018-05-27T17:07:34.686Z,100919.13
2018-05-27T17:10:03.764Z,100905.45
2018-05-27T17:12:32.110Z,100894.48
2018-05-27T17:15:00.438Z,100882.72
2018-05-27T17:17:28.811Z,100872.53
2018-05-27T17:20:01.166Z,100877.11
2018-05-27T17:22:29.566Z,100887.50
2018-05-27T17:24:57.967Z,100892.09
2018-05-27T17:27:26.291Z,100891.78
2018-05-27T17:29:55.531Z,100883.44
2018-05-27T17:32:23.863Z,100867.95
2018-05-27T17:34:52.231Z,100872.02
2018-05-27T17:37:21.516Z,100868.75
2018-05-27T17:39:49.855Z,100857.37
2018-05-27T17:42:18.199Z,100844.55
2018-05-27T17:44:49.711Z,100834.82
2018-05-27T17:47:19.042Z,100825.55
2018-05-27T17:49:48.207Z,100824.42
2018-05-27T17:52:16.507Z,100820.64
2018-05-27T17:54:44.857Z,100815.76
2018-05-27T17:57:13.167Z,100811.72
2018-05-27T17:59:41.559Z,100812.87
2018-05-27T18:02:09.905Z,100813.27
2018-05-27T18:04:39.008Z,100803.03
2018-05-27T18:07:08.079Z,100808.84
2018-05-27T18:09:36.439Z,100818.73
2018-05-27T18:12:04.769Z,100826.43
2018-05-27T18:14:33.099Z,100834.02
2018-05-27T18:17:01.472Z,100832.71
2018-05-27T18:19:29.843Z,100831.21
2018-05-27T18:21:58.173Z,100834.58
2018-05-27T18:24:30.122Z,100849.86
2018-05-27T18:26:58.457Z,100854.14
2018-05-27T18:29:26.774Z,100866.88
2018-05-27T18:31:55.184Z,100858.81
2018-05-27T18:34:23.554Z,100862.53
2018-05-27T18:36:51.882Z,100866.98
2018-05-27T18:39:21.024Z,100872.02
2018-05-27T18:41:49.356Z,100870.80
2018-05-27T18:44:17.742Z,100873.68
2018-05-27T18:46:46.058Z,100873.92
2018-05-27T18:49:14.383Z,100886.96
2018-05-27T18:51:42.709Z,100894.71
2018-05-27T18:54:11.058Z,100890.77
2018-05-27T18:56:39.383Z,100898.92
2018-05-27T18:59:07.757Z,100903.11
2018-05-27T19:01:36.080Z,100900.27
2018-05-27T19:04:04.473Z,100906.06
2018-05-27T19:06:32.811Z,100906.41
2018-05-27T19:09:01.207Z,100911.80
2018-05-27T19:11:29.556Z,100909.41
2018-05-27T19:13:57.921Z,100911.98
2018-05-27T19:16:29.972Z,100900.61
2018-05-27T19:19:00.227Z,100904.40
2018-05-27T19:21:28.610Z,100910.27
2018-05-27T19:23:56.935Z,100915.95
2018-05-27T19:26:25.253Z,100915.64
2018-05-27T19:28:54.346Z,100911.70
2018-05-27T19:31:22.674Z,100917.91
2018-05-27T19:33:51.010Z,100927.67
2018-05-27T19:36:19.363Z,100933.13
2018-05-27T19:38:47.744Z,100942.02
2018-05-27T19:41:16.083Z,100939.88
2018-05-27T19:43:44.444Z,100943.50
2018-05-27T19:46:12.811Z,100940.41
2018-05-27T19:48:41.191Z,100940.86
2018-05-27T19:51:09.527Z,100951.28
2018-05-27T19:53:37.851Z,100960.09
2018-05-27T19:56:06.218Z,100969.69
2018-05-27T19:58:34.574Z,100974.62
2018-05-27T20:01:03.689Z,100977.44
2018-05-27T20:03:32.060Z,100974.75
2018-05-27T20:06:01.130Z,100971.94
2018-05-27T20:08:29.467Z,100973.88
2018-05-27T20:10:57.785Z,100970.45
2018-05-27T20:13:26.146Z,100975.14
2018-05-27T20:15:54.481Z,100979.79
2018-05-27T20:18:22.822Z,100978.70
2018-05-27T20:20:51.156Z,100982.94
2018-05-27T20:23:19.507Z,100978.63
2018-05-27T20:25:47.858Z,100977.64
2018-05-27T20:28:16.174Z,100981.21
2018-05-27T20:30:44.546Z,100972.75
2018-05-27T20:33:12.823Z,100983.05
2018-05-27T20:35:41.150Z,100982.94
2018-05-27T20:38:09.499Z,100992.02
2018-05-27T20:40:37.827Z,100987.23
2018-05-27T20:43:06.980Z,100982.73
2018-05-27T20:45:35.295Z,100991.16
2018-05-27T20:48:03.643Z,100980.70
2018-05-27T20:50:31.976Z,100982.17
2018-05-27T20:53:00.328Z,100981.08
2018-05-27T20:55:28.712Z,100982.38
2018-05-27T20:57:57.049Z,100978.80
2018-05-27T21:00:25.457Z,100974.41
2018-05-27T21:02:54.579Z,100968.52
2018-05-27T21:05:23.732Z,100959.24
2018-05-27T21:07:52.043Z,100938.34
2018-05-27T21:10:20.418Z,100942.75
2018-05-27T21:12:48.735Z,100939.33
2018-05-27T21:15:17.086Z,100931.97
2018-05-27T21:17:45.407Z,100936.91
2018-05-27T21:20:13.731Z,100925.64
2018-05-27T21:22:42.830Z,100925.37
2018-05-27T21:25:11.148Z,100928.46
2018-05-27T21:27:39.490Z,100922.20
2018-05-27T21:30:07.799Z,100919.42
2018-05-27T21:32:36.980Z,100908.94
2018-05-27T21:35:05.335Z,100911.41
2018-05-27T21:37:33.743Z,100909.16
2018-05-27T21:40:02.094Z,100921.46
2018-05-27T21:42:30.418Z,100921.97
2018-05-27T21:44:58.760Z,100922.81
2018-05-27T21:47:27.882Z,100920.77
2018-05-27T21:49:56.242Z,100922.95
2018-05-27T21:52:24.557Z,100916.27
2018-05-27T21:54:53.646Z,100924.86
2018-05-27T21:57:21.980Z,100926.17
2018-05-27T21:59:50.302Z,100927.19
2018-05-27T22:02:18.648Z,100927.97
2018-05-27T22:04:47.033Z,100930.28
2018-05-27T22:07:15.379Z,100924.05
2018-05-27T22:09:43.707Z,100924.48
2018-05-27T22:12:12.867Z,100929.38
2018-05-27T22:14:41.197Z,100926.73
2018-05-27T22:17:09.563Z,100934.28
2018-05-27T22:19:45.032Z,100929.95
2018-05-27T22:22:14.199Z,100925.32
2018-05-27T22:24:48.307Z,100932.70
2018-05-27T22:27:17.404Z,100936.72
2018-05-27T22:29:45.976Z,100930.20
2018-05-27T22:32:14.321Z,100938.11
2018-05-27T22:34:43.612Z,100927.81
2018-05-27T22:37:12.626Z,100927.38
2018-05-27T22:39:44.107Z,100923.34
2018-05-27T22:42:13.237Z,100924.93
2018-05-27T22:44:41.567Z,100922.94
2018-05-27T22:47:09.969Z,100914.53
2018-05-27T22:49:38.375Z,100915.33
2018-05-27T22:52:13.950Z,100918.08
2018-05-27T22:54:47.649Z,100922.87
2018-05-27T22:57:16.225Z,100926.88
2018-05-27T22:59:44.606Z,100915.48
2018-05-27T23:02:12.995Z,100913.34
2018-05-27T23:04:41.435Z,100910.08
2018-05-27T23:07:09.784Z,100912.20
2018-05-27T23:09:38.167Z,100925.81
2018-05-27T23:12:06.518Z,100925.53
2018-05-27T23:14:41.399Z,100931.72
2018-05-27T23:17:09.782Z,100945.16
2018-05-27T23:22:24.807Z,100940.41
2018-05-27T23:24:53.288Z,100947.17
2018-05-27T23:27:24.182Z,100948.62
2018-05-27T23:29:52.545Z,100954.61
2018-05-27T23:32:20.885Z,100957.45
2018-05-27T23:34:53.911Z,100962.03
2018-05-27T23:37:30.592Z,100965.86
2018-05-27T23:40:11.458Z,100961.09
2018-05-27T23:42:39.841Z,100964.11
2018-05-27T23:45:08.243Z,100967.05
2018-05-27T23:47:36.591Z,100962.81
2018-05-27T23:50:12.107Z,100963.83
2018-05-27T23:52:41.387Z,100955.73
2018-05-27T23:55:14.192Z,100954.65
2018-05-27T23:57:42.701Z,100953.89
